This is the latest recevied weather packets stored in our database for station/object F1PPH-1. If no packets are shown the sender has not sent any weather packets the latest 10 day(s).
| Time | Temp. | Humidity | Pressure | Rain* | Wind** | Luminosity | Snow |
|---|---|---|---|---|---|---|---|
| 1788133319 | 70° F | 49% | 756.3 mmHg | - | - | - | - |
| 1788129719 | 69° F | 48% | 756.2 mmHg | - | - | - | - |
| 1788126119 | 70° F | 46% | 756.1 mmHg | - | - | - | - |
| 1788122518 | 71° F | 45% | 756 mmHg | - | - | - | - |
| 1788118918 | 74° F | 44% | 755.8 mmHg | - | - | - | - |
| 1788115318 | 79° F | 42% | 755.3 mmHg | - | - | - | - |
| 1788111717 | 83° F | 40% | 755.1 mmHg | - | - | - | - |
| 1788108117 | 84° F | 40% | 754.9 mmHg | - | - | - | - |
| 1788104517 | 88° F | 38% | 754.7 mmHg | - | - | - | - |
| 1788100916 | 89° F | 38% | 754.9 mmHg | - | - | - | - |
| 1788097316 | 92° F | 39% | 755.2 mmHg | - | - | - | - |
| 1788093715 | 87° F | 43% | 755.8 mmHg | - | - | - | - |
| 1788090115 | 89° F | 44% | 756 mmHg | - | - | - | - |
| 1788086516 | 86° F | 53% | 756.3 mmHg | - | - | - | - |
| 1788082917 | 81° F | 56% | 756.6 mmHg | - | - | - | - |
| 1788079313 | 77° F | 59% | 756.7 mmHg | - | - | - | - |
| 1788075712 | 72° F | 60% | 756.7 mmHg | - | - | - | - |
| 1788068511 | 68° F | 60% | 756.4 mmHg | - | - | - | - |
| 1788064911 | 68° F | 59% | 756.2 mmHg | - | - | - | - |
| 1788061310 | 69° F | 59% | 756.3 mmHg | - | - | - | - |
| 1788057711 | 69° F | 58% | 756.4 mmHg | - | - | - | - |
| 1788054110 | 68° F | 58% | 756.4 mmHg | - | - | - | - |
| 1788050510 | 67° F | 57% | 756.4 mmHg | - | - | - | - |
| 1788046910 | 68° F | 57% | 756.3 mmHg | - | - | - | - |
| 1788043310 | 69° F | 56% | 756.3 mmHg | - | - | - | - |
* Rain since midnight (hover to see other rain measurements)
** Current wind speed in m/s (hover to see current wind gust speed)